Time;durP1;ratioP1;P1;durP2;ratioP2;P2;SDS_P1;SDS_P2;PMS_P1;PMS_P2;Temp;Humidity;BMP_temperature;BMP_pressure;BME280_temperature;BME280_humidity;BME280_pressure;Samples;Min_cycle;Max_cycle;Signal;HPM_P1;HPM_P2
2022/08/09 04:32:28;;;;;;;;;3.33;3.33;;;;;20.15;49.43;102122.75;5078882;22;45260;-68
2022/08/09 04:34:54;;;;;;;;;2.33;1.33;;;;;20.16;50.37;102119.09;5030902;28;45322;-67
2022/08/09 04:37:20;;;;;;;;;3.00;3.00;;;;;20.15;49.62;102120.06;5039936;28;45446;-66
2022/08/09 04:39:45;;;;;;;;;1.00;1.00;;;;;20.11;49.87;102115.84;5037348;28;45434;-67
2022/08/09 04:42:11;;;;;;;;;5.33;3.00;;;;;20.08;49.50;102118.78;5033367;28;45350;-67
2022/08/09 04:44:37;;;;;;;;;3.67;3.67;;;;;20.03;49.63;102123.63;5033099;28;45339;-66
2022/08/09 04:47:02;;;;;;;;;2.67;2.33;;;;;20.00;50.03;102117.47;5036738;28;45578;-66
2022/08/09 04:49:32;;;;;;;;;7.00;4.00;;;;;19.98;49.88;102119.38;5039898;28;46105;-67
2022/08/09 04:51:58;;;;;;;;;2.33;2.33;;;;;19.94;50.18;102125.13;5037618;28;45411;-66
2022/08/09 04:54:23;;;;;;;;;2.00;2.00;;;;;19.92;50.74;102132.44;5038396;28;45414;-67
2022/08/09 04:56:49;;;;;;;;;2.00;2.00;;;;;19.92;50.50;102125.22;5034534;28;45627;-67
2022/08/09 04:59:14;;;;;;;;;2.00;2.00;;;;;19.92;50.50;102127.94;5032229;28;73476;-67
2022/08/09 05:01:39;;;;;;;;;2.33;2.33;;;;;19.92;50.54;102127.06;5028664;28;71078;-67
2022/08/09 05:04:05;;;;;;;;;4.00;3.00;;;;;19.93;50.67;102132.38;5038720;28;45456;-67
2022/08/09 05:06:30;;;;;;;;;2.33;2.00;;;;;19.95;50.59;102137.66;5032380;28;45517;-67
2022/08/09 05:08:55;;;;;;;;;6.33;4.67;;;;;19.91;51.46;102133.44;5033083;28;70008;-67
2022/08/09 05:11:22;;;;;;;;;2.67;2.67;;;;;19.90;50.88;102137.97;5038056;28;46772;-67
2022/08/09 05:13:47;;;;;;;;;4.00;4.00;;;;;19.88;51.06;102130.94;5031757;28;45470;-67
2022/08/09 05:16:12;;;;;;;;;7.67;7.00;;;;;19.89;51.20;102133.53;5034870;28;64250;-67
2022/08/09 05:18:38;;;;;;;;;2.00;2.00;;;;;19.90;50.96;102135.25;5033293;28;62393;-67
2022/08/09 05:21:03;;;;;;;;;2.67;2.67;;;;;19.89;50.71;102132.66;5033474;28;45449;-67
2022/08/09 05:23:29;;;;;;;;;2.33;2.33;;;;;19.97;50.63;102136.59;5022397;28;45348;-67
2022/08/09 05:25:54;;;;;;;;;7.00;6.67;;;;;20.06;49.96;102129.66;5034378;28;45504;-67
2022/08/09 05:28:19;;;;;;;;;3.67;3.00;;;;;20.17;50.02;102132.47;5033403;28;46321;-67
2022/08/09 05:30:45;;;;;;;;;5.00;4.00;;;;;20.29;49.91;102138.88;5034298;28;70580;-67
2022/08/09 05:33:11;;;;;;;;;4.33;3.00;;;;;20.41;49.83;102139.81;5034240;28;45569;-67
2022/08/09 05:35:36;;;;;;;;;2.33;2.33;;;;;20.44;49.77;102141.44;5034427;28;45471;-68
2022/08/09 05:38:01;;;;;;;;;2.00;2.00;;;;;20.50;49.35;102141.88;5038002;28;73466;-67
2022/08/09 05:40:27;;;;;;;;;3.00;3.00;;;;;20.60;49.45;102147.50;5036879;28;48365;-68
2022/08/09 05:42:56;;;;;;;;;3.33;3.00;;;;;20.62;48.80;102150.09;5032744;28;45584;-68
2022/08/09 05:45:22;;;;;;;;;2.33;1.33;;;;;20.70;48.68;102152.28;5039469;28;45530;-68
2022/08/09 05:47:47;;;;;;;;;4.00;4.00;;;;;20.82;48.65;102144.16;5034136;28;46352;-67
2022/08/09 05:50:13;;;;;;;;;3.00;3.00;;;;;20.91;48.59;102150.72;5037425;28;67885;-67
2022/08/09 05:52:40;;;;;;;;;1.00;1.00;;;;;20.90;47.94;102151.69;5032285;28;63304;-67
2022/08/09 05:55:06;;;;;;;;;4.00;2.67;;;;;20.95;48.30;102151.34;5037640;28;45372;-66
2022/08/09 05:57:33;;;;;;;;;5.00;3.33;;;;;21.04;47.78;102157.94;5033194;28;45451;-66
2022/08/09 05:59:58;;;;;;;;;5.67;3.33;;;;;21.14;47.80;102153.59;5038602;28;45351;-66
2022/08/09 06:02:24;;;;;;;;;2.33;1.67;;;;;21.12;47.84;102153.69;5035711;28;45509;-66
2022/08/09 06:04:49;;;;;;;;;4.67;4.33;;;;;20.97;48.06;102147.56;5036175;28;70162;-67
2022/08/09 06:07:14;;;;;;;;;2.00;2.00;;;;;20.97;48.29;102146.72;5036742;28;70945;-67
2022/08/09 06:09:40;;;;;;;;;3.33;3.00;;;;;21.04;47.64;102158.81;5028829;28;70259;-68
2022/08/09 06:12:05;;;;;;;;;5.00;3.00;;;;;21.13;47.32;102155.44;5038179;28;45494;-68
2022/08/09 06:14:31;;;;;;;;;10.67;7.33;;;;;21.20;48.25;102160.38;5029063;28;45443;-68
2022/08/09 06:16:56;;;;;;;;;3.33;3.33;;;;;21.19;47.39;102169.47;5032711;28;61111;-66
2022/08/09 06:19:21;;;;;;;;;4.00;4.00;;;;;21.18;47.72;102173.16;5035396;28;63618;-67
2022/08/09 06:21:47;;;;;;;;;2.33;2.33;;;;;21.16;47.47;102175.97;5037077;28;68277;-67
2022/08/09 06:24:12;;;;;;;;;5.67;3.00;;;;;21.21;47.59;102173.81;5031636;28;45845;-67
2022/08/09 06:26:40;;;;;;;;;4.00;4.00;;;;;21.32;47.39;102170.28;5033504;28;45387;-67
2022/08/09 06:29:07;;;;;;;;;5.00;4.00;;;;;21.44;47.54;102173.94;5030593;28;45747;-68
2022/08/09 06:32:16;;;;;;;;;4.00;2.33;;;;;21.57;47.35;102180.16;5028055;28;45977;-67
2022/08/09 06:34:41;;;;;;;;;5.00;4.00;;;;;21.63;46.88;102179.72;5034237;28;45245;-67
2022/08/09 06:37:07;;;;;;;;;4.00;2.67;;;;;21.70;46.68;102184.69;5033155;28;67930;-66
2022/08/09 06:39:32;;;;;;;;;3.67;3.67;;;;;21.71;46.35;102175.56;5031297;28;45470;-67
2022/08/09 06:41:58;;;;;;;;;4.00;4.00;;;;;21.66;46.17;102185.88;5038880;28;45452;-67
2022/08/09 06:44:23;;;;;;;;;4.00;4.00;;;;;21.70;46.72;102182.81;5032051;28;69928;-67
2022/08/09 06:46:50;;;;;;;;;4.33;3.67;;;;;21.81;46.69;102176.56;5035017;28;47040;-67
2022/08/09 06:49:15;;;;;;;;;4.00;4.00;;;;;21.97;45.93;102192.53;5035530;28;45421;-67
2022/08/09 06:51:41;;;;;;;;;4.00;2.33;;;;;22.13;46.47;102184.06;5039093;28;45228;-67
2022/08/09 06:54:06;;;;;;;;;4.00;4.00;;;;;22.28;45.88;102182.88;5036353;28;45526;-67
2022/08/09 06:56:31;;;;;;;;;4.00;4.00;;;;;22.45;45.48;102183.44;5030140;28;73307;-67
2022/08/09 06:58:57;;;;;;;;;2.33;2.33;;;;;22.63;44.93;102181.97;5036664;28;66842;-67
2022/08/09 07:01:23;;;;;;;;;4.67;3.00;;;;;22.87;44.97;102186.41;5032029;28;45288;-67
2022/08/09 07:03:48;;;;;;;;;3.00;3.00;;;;;23.09;44.23;102185.53;5030176;28;64052;-67
2022/08/09 07:06:13;;;;;;;;;4.00;4.00;;;;;23.32;44.04;102190.09;5037141;28;67325;-67
2022/08/09 07:08:39;;;;;;;;;3.67;3.67;;;;;23.49;43.85;102194.97;5028556;28;72729;-67
2022/08/09 07:11:04;;;;;;;;;4.67;4.67;;;;;23.65;43.27;102190.97;5036756;28;63883;-68
2022/08/09 07:13:30;;;;;;;;;4.33;4.33;;;;;23.85;42.95;102194.72;5033352;28;45617;-67
2022/08/09 07:15:56;;;;;;;;;6.33;4.00;;;;;24.06;42.80;102200.19;5040688;28;46825;-67
2022/08/09 07:18:21;;;;;;;;;3.67;2.00;;;;;24.31;42.22;102204.38;5031717;28;45308;-66
2022/08/09 07:20:49;;;;;;;;;3.33;3.33;;;;;24.50;41.95;102195.47;5038692;28;49277;-67
2022/08/09 07:23:16;;;;;;;;;4.00;4.00;;;;;24.67;41.62;102195.88;5030248;28;45230;-67
2022/08/09 07:25:41;;;;;;;;;3.00;3.00;;;;;24.85;40.84;102202.41;5032727;28;46426;-67
2022/08/09 07:28:06;;;;;;;;;4.00;4.00;;;;;24.98;40.76;102193.13;5026989;28;45494;-67
2022/08/09 07:30:32;;;;;;;;;5.33;4.00;;;;;25.16;40.35;102190.59;5028257;28;45797;-67
2022/08/09 07:32:57;;;;;;;;;4.00;4.00;;;;;25.33;40.12;102197.25;5034093;28;66277;-67
2022/08/09 07:35:24;;;;;;;;;4.67;4.67;;;;;25.47;39.80;102196.00;5024779;28;46915;-67
2022/08/09 07:37:49;;;;;;;;;1.00;1.00;;;;;25.58;39.03;102185.84;5025993;28;66586;-67
2022/08/09 07:40:17;;;;;;;;;3.67;3.67;;;;;25.76;38.64;102191.44;5036488;28;45447;-66
2022/08/09 07:42:58;;;;;;;;;7.33;6.33;;;;;25.93;38.81;102192.59;5024363;28;45301;-67
2022/08/09 07:45:26;;;;;;;;;6.33;5.33;;;;;26.00;38.32;102190.13;5029184;28;46055;-67
2022/08/09 07:47:52;;;;;;;;;5.00;5.00;;;;;26.15;38.63;102193.31;5032130;28;45359;-66
2022/08/09 07:50:21;;;;;;;;;9.00;8.67;;;;;26.40;37.83;102193.69;5026741;28;45509;-66
2022/08/09 07:52:47;;;;;;;;;0.00;0.00;;;;;26.69;36.67;102190.00;5030351;28;45450;-67
2022/08/09 07:55:13;;;;;;;;;6.67;6.67;;;;;27.21;36.30;102194.94;5032889;28;45719;-66
2022/08/09 07:57:38;;;;;;;;;2.33;2.33;;;;;27.67;36.31;102189.47;5037292;28;45418;-67
2022/08/09 08:00:05;;;;;;;;;4.33;4.33;;;;;28.26;35.27;102194.41;5030783;28;45506;-67
2022/08/09 08:02:30;;;;;;;;;3.00;3.00;;;;;28.76;34.97;102196.47;5033261;28;45498;-67
2022/08/09 08:04:56;;;;;;;;;3.33;3.33;;;;;29.27;34.33;102184.69;5028613;28;70233;-67
2022/08/09 08:07:21;;;;;;;;;6.00;5.00;;;;;29.73;32.69;102184.25;5026330;28;45918;-66
2022/08/09 08:09:46;;;;;;;;;5.67;4.33;;;;;29.85;32.61;102191.09;5031613;28;45435;-67
2022/08/09 08:12:12;;;;;;;;;5.00;3.00;;;;;29.98;32.69;102187.88;5034607;28;69575;-66
2022/08/09 08:14:37;;;;;;;;;3.00;3.00;;;;;30.35;32.12;102191.91;5033315;28;71024;-67
2022/08/09 08:17:02;;;;;;;;;6.33;4.33;;;;;30.71;31.30;102199.75;5031581;28;65180;-67
2022/08/09 08:19:28;;;;;;;;;4.00;4.00;;;;;30.98;31.20;102195.69;5036212;28;45347;-66
2022/08/09 08:21:53;;;;;;;;;4.00;3.00;;;;;31.24;29.58;102196.44;5033317;28;65436;-67
2022/08/09 08:24:18;;;;;;;;;3.00;3.00;;;;;31.36;29.76;102192.25;5027467;28;45248;-67
2022/08/09 08:26:44;;;;;;;;;3.33;3.33;;;;;31.49;29.90;102188.91;5027713;28;64432;-67
2022/08/09 08:29:09;;;;;;;;;5.00;4.33;;;;;31.83;29.09;102191.22;5036730;28;45525;-67
2022/08/09 08:31:34;;;;;;;;;4.33;4.33;;;;;32.02;28.03;102196.41;5023516;28;64813;-67
2022/08/09 08:34:00;;;;;;;;;3.67;3.00;;;;;31.95;28.55;102194.41;5031594;28;74257;-67
2022/08/09 08:36:25;;;;;;;;;4.33;2.33;;;;;32.18;28.52;102193.53;5021218;28;45477;-67
2022/08/09 08:38:50;;;;;;;;;3.00;3.00;;;;;32.56;28.36;102198.13;5028092;28;51105;-67
2022/08/09 08:41:16;;;;;;;;;4.00;4.00;;;;;32.84;27.81;102206.59;5031183;28;62447;-67
2022/08/09 08:43:42;;;;;;;;;4.00;4.00;;;;;33.02;27.39;102203.44;5028327;28;47178;-67
2022/08/09 08:46:10;;;;;;;;;3.67;3.67;;;;;33.17;27.18;102208.03;5031025;28;47326;-67
2022/08/09 08:48:35;;;;;;;;;6.00;6.00;;;;;33.21;26.11;102199.22;5035127;28;45677;-67
2022/08/09 08:51:01;;;;;;;;;3.67;3.67;;;;;33.30;26.88;102192.56;5024108;28;63273;-66
2022/08/09 08:53:27;;;;;;;;;5.00;3.33;;;;;33.55;26.52;102194.94;5033784;28;45530;-67
2022/08/09 08:55:52;;;;;;;;;4.00;4.00;;;;;33.80;25.88;102189.88;5033031;28;45481;-66
2022/08/09 08:58:18;;;;;;;;;3.00;3.00;;;;;33.88;25.31;102190.81;5037433;28;45335;-66
2022/08/09 09:00:44;;;;;;;;;5.67;5.67;;;;;33.65;25.27;102194.63;5027734;28;45461;-67
2022/08/09 09:03:10;;;;;;;;;4.00;4.00;;;;;33.33;25.14;102190.47;5028110;28;47249;-67
2022/08/09 09:05:35;;;;;;;;;2.67;2.67;;;;;33.23;25.64;102191.63;5031105;28;45617;-66
2022/08/09 09:08:02;;;;;;;;;3.00;3.00;;;;;33.16;25.31;102193.44;5040568;28;49164;-66
2022/08/09 09:10:29;;;;;;;;;5.00;4.00;;;;;32.90;25.40;102193.97;5035800;28;45740;-67
2022/08/09 09:12:55;;;;;;;;;5.67;4.00;;;;;32.90;26.14;102199.47;5027082;28;45533;-67
2022/08/09 09:15:20;;;;;;;;;4.33;3.33;;;;;33.18;25.99;102196.84;5024327;28;49485;-67
2022/08/09 09:17:46;;;;;;;;;3.67;3.67;;;;;33.29;25.48;102199.13;5035661;28;45381;-68
2022/08/09 09:20:13;;;;;;;;;6.00;6.00;;;;;33.10;25.41;102197.81;5037071;28;64748;-67
2022/08/09 09:22:58;;;;;;;;;5.67;4.33;;;;;32.86;25.42;102195.41;5035839;28;46107;-67
2022/08/09 09:25:41;;;;;;;;;4.67;4.00;;;;;32.15;26.06;102197.50;5038257;28;45296;-67
2022/08/09 09:28:07;;;;;;;;;1.33;1.33;;;;;31.82;26.59;102195.06;5028687;28;46075;-67
2022/08/09 09:30:34;;;;;;;;;4.67;4.67;;;;;31.65;26.22;102191.59;5031359;28;46881;-68
2022/08/09 09:33:05;;;;;;;;;4.67;3.67;;;;;31.53;26.95;102186.66;5036892;28;46190;-67
2022/08/09 09:35:31;;;;;;;;;2.00;2.00;;;;;31.49;27.17;102194.41;5030591;28;45650;-68
2022/08/09 09:37:58;;;;;;;;;4.67;4.67;;;;;31.55;27.40;102181.81;5032073;28;45396;-67
2022/08/09 09:40:40;;;;;;;;;3.33;3.33;;;;;31.55;27.33;102177.19;5035126;28;45596;-66
2022/08/09 09:43:06;;;;;;;;;2.33;2.33;;;;;31.67;27.46;102177.66;5036379;28;47063;-67
2022/08/09 09:45:46;;;;;;;;;5.00;5.00;;;;;31.84;27.21;102181.09;5033070;28;45646;-67
2022/08/09 09:48:11;;;;;;;;;3.00;3.00;;;;;31.93;27.22;102176.38;5038538;28;45383;-67
2022/08/09 09:50:41;;;;;;;;;4.33;3.00;;;;;31.93;27.15;102173.63;5028907;28;62014;-67
2022/08/09 09:53:14;;;;;;;;;2.33;2.33;;;;;32.06;26.61;102178.47;5034663;28;46196;-67
2022/08/09 09:55:56;;;;;;;;;2.67;2.67;;;;;32.02;26.71;102180.78;5035270;28;45537;-67
2022/08/09 09:58:22;;;;;;;;;4.00;4.00;;;;;32.05;26.48;102174.03;5033753;28;45378;-67
2022/08/09 10:00:53;;;;;;;;;3.33;3.00;;;;;32.08;26.75;102171.75;5031343;28;45468;-67
2022/08/09 10:03:45;;;;;;;;;3.00;3.00;;;;;32.19;26.54;102177.88;5033617;28;46492;-67
2022/08/09 10:06:12;;;;;;;;;4.67;4.00;;;;;32.36;26.21;102171.16;5034548;28;45674;-67
2022/08/09 10:08:37;;;;;;;;;6.67;5.00;;;;;32.43;25.42;102174.84;5032709;28;46261;-67
2022/08/09 10:11:15;;;;;;;;;5.00;4.00;;;;;32.28;26.16;102168.50;5031260;28;45544;-67
2022/08/09 10:13:41;;;;;;;;;4.00;4.00;;;;;32.45;26.49;102164.53;5028833;28;47159;-67
2022/08/09 10:16:06;;;;;;;;;6.00;6.00;;;;;32.64;25.97;102181.50;5025133;28;45523;-67
2022/08/09 10:18:32;;;;;;;;;4.67;4.67;;;;;32.78;25.52;102163.31;5030696;28;45459;-67
2022/08/09 10:21:06;;;;;;;;;4.00;4.00;;;;;32.81;26.17;102166.53;5014450;28;45416;-68
2022/08/09 10:23:31;;;;;;;;;3.67;3.67;;;;;32.98;25.47;102163.53;5035214;28;46382;-68
2022/08/09 10:25:56;;;;;;;;;4.33;4.33;;;;;33.02;25.27;102162.09;5030718;28;70335;-68
2022/08/09 10:28:22;;;;;;;;;4.00;4.00;;;;;33.05;25.58;102155.34;5034891;28;67701;-68
2022/08/09 10:30:47;;;;;;;;;4.00;4.00;;;;;33.07;25.31;102162.38;5034404;28;45718;-68
2022/08/09 10:33:14;;;;;;;;;6.00;5.00;;;;;33.20;25.55;102152.56;5028489;28;46100;-68
2022/08/09 10:35:40;;;;;;;;;3.67;3.67;;;;;33.35;25.13;102155.28;5035514;28;45409;-67
2022/08/09 10:38:06;;;;;;;;;5.33;5.33;;;;;33.28;25.06;102153.34;5031885;28;45508;-68
2022/08/09 10:40:32;;;;;;;;;3.00;3.00;;;;;33.15;25.24;102162.28;5030596;28;45597;-69
2022/08/09 10:42:57;;;;;;;;;4.00;4.00;;;;;33.13;24.93;102153.34;5029088;28;46899;-83
2022/08/09 10:45:23;;;;;;;;;4.67;3.67;;;;;33.23;25.10;102157.66;5033285;28;72154;-82
2022/08/09 10:47:59;;;;;;;;;6.00;6.00;;;;;33.33;24.65;102146.38;5027210;28;66036;-83
2022/08/09 10:53:37;;;;;;;;;4.67;4.67;;;;;33.29;24.72;102145.91;5028426;28;45921;-83
2022/08/09 10:56:23;;;;;;;;;5.00;5.00;;;;;33.34;24.67;102134.28;5032177;28;45297;-83
2022/08/09 10:58:50;;;;;;;;;4.33;4.00;;;;;33.52;24.70;102142.97;5036950;28;45376;-82
2022/08/09 11:01:30;;;;;;;;;4.00;4.00;;;;;33.56;24.43;102136.00;5032458;28;45632;-82
2022/08/09 11:04:08;;;;;;;;;4.00;4.00;;;;;33.72;24.51;102137.59;5032077;28;46181;-83
2022/08/09 11:06:36;;;;;;;;;5.33;5.33;;;;;33.90;24.00;102137.16;5027971;28;45304;-82
2022/08/09 11:09:04;;;;;;;;;4.67;4.67;;;;;33.92;24.15;102137.81;5032410;28;46381;-83
2022/08/09 11:11:58;;;;;;;;;3.67;3.67;;;;;33.91;23.92;102138.84;5031010;28;45530;-82
2022/08/09 11:14:34;;;;;;;;;4.33;4.33;;;;;33.86;23.65;102140.50;5031108;28;46884;-81
2022/08/09 11:16:59;;;;;;;;;4.00;4.00;;;;;33.88;23.63;102138.41;5029144;28;45449;-82
2022/08/09 11:19:54;;;;;;;;;4.00;4.00;;;;;33.99;23.73;102126.81;5029894;28;45532;-80
2022/08/09 11:22:20;;;;;;;;;5.33;5.33;;;;;34.04;23.53;102132.59;5024831;28;45461;-80
2022/08/09 11:25:10;;;;;;;;;5.67;5.67;;;;;34.02;23.77;102129.16;5031400;28;45433;-81
2022/08/09 11:27:44;;;;;;;;;3.00;3.00;;;;;34.06;22.86;102122.19;5031275;28;45541;-80
2022/08/09 11:30:12;;;;;;;;;5.00;4.00;;;;;34.10;23.46;102117.97;5032252;28;45268;-78
2022/08/09 11:32:44;;;;;;;;;4.67;4.67;;;;;34.06;23.09;102132.38;5027131;28;46105;-80
2022/08/09 11:35:37;;;;;;;;;5.33;5.33;;;;;33.96;23.69;102121.69;5031360;28;46373;-81
2022/08/09 11:38:16;;;;;;;;;5.67;5.00;;;;;33.91;23.50;102127.81;5025621;28;45541;-83
2022/08/09 11:40:42;;;;;;;;;4.00;4.00;;;;;33.85;23.55;102119.50;5038083;28;45558;-81
2022/08/09 11:43:07;;;;;;;;;5.00;4.00;;;;;33.80;23.31;102106.28;5022408;28;46070;-81
2022/08/09 11:45:42;;;;;;;;;3.00;3.00;;;;;33.77;23.41;102113.03;5022291;28;46111;-82
2022/08/09 11:48:10;;;;;;;;;6.33;6.33;;;;;33.84;23.50;102113.13;5032230;28;45841;-80
2022/08/09 11:50:57;;;;;;;;;4.33;4.33;;;;;33.74;22.90;102118.09;5028754;28;46680;-82
2022/08/09 11:53:23;;;;;;;;;4.00;4.00;;;;;33.71;23.10;102105.56;5031970;28;45446;-83
2022/08/09 11:55:52;;;;;;;;;2.67;2.67;;;;;33.85;22.98;102100.19;5027462;28;46853;-82
2022/08/09 11:58:18;;;;;;;;;4.00;4.00;;;;;33.98;22.97;102105.78;5025696;28;45379;-82
2022/08/09 12:00:49;;;;;;;;;4.00;4.00;;;;;34.08;23.03;102100.78;5028515;28;45542;-82
2022/08/09 12:03:16;;;;;;;;;4.33;3.33;;;;;34.12;22.75;102096.53;5026515;28;45297;-82
2022/08/09 12:05:41;;;;;;;;;0.00;0.00;;;;;34.09;22.87;102099.72;5028775;28;45301;-83
2022/08/09 12:08:11;;;;;;;;;4.00;4.00;;;;;34.25;22.32;102094.91;5029085;28;45399;-82
2022/08/09 12:10:42;;;;;;;;;5.33;5.33;;;;;34.41;22.80;102091.84;5030248;28;45436;-83
2022/08/09 12:13:08;;;;;;;;;5.00;5.00;;;;;34.48;22.90;102096.53;5024909;28;46831;-82
2022/08/09 12:15:33;;;;;;;;;3.00;3.00;;;;;34.43;22.87;102088.88;5025133;28;45491;-81
2022/08/09 12:17:59;;;;;;;;;4.67;3.67;;;;;34.41;22.76;102085.47;5029176;28;45302;-76
2022/08/09 12:20:25;;;;;;;;;4.33;4.33;;;;;34.39;22.62;102084.81;5034293;28;45359;-75
2022/08/09 12:23:01;;;;;;;;;4.00;4.00;;;;;34.32;21.59;102084.78;5032528;28;45443;-75
2022/08/09 12:25:28;;;;;;;;;3.67;3.67;;;;;34.35;21.76;102076.09;5031194;28;46577;-76
2022/08/09 12:28:11;;;;;;;;;3.00;3.00;;;;;34.58;22.36;102073.00;5031127;28;45379;-76
2022/08/09 12:30:36;;;;;;;;;3.33;3.33;;;;;34.65;22.18;102086.84;5023843;28;46992;-76
2022/08/09 12:33:03;;;;;;;;;5.00;5.00;;;;;34.56;22.01;102077.03;5020971;28;60225;-81
2022/08/09 12:35:29;;;;;;;;;4.33;4.33;;;;;34.46;22.05;102070.00;5030027;28;46042;-82
2022/08/09 12:37:54;;;;;;;;;5.00;5.00;;;;;34.32;21.86;102079.28;5024307;28;45297;-82
2022/08/09 12:40:22;;;;;;;;;4.33;3.00;;;;;34.18;22.04;102069.19;5031838;28;45407;-82
2022/08/09 12:42:47;;;;;;;;;5.33;5.33;;;;;34.02;22.52;102067.63;5027529;28;45824;-81
2022/08/09 12:45:13;;;;;;;;;4.33;4.33;;;;;33.79;22.35;102069.59;5029640;28;67132;-83
2022/08/09 12:47:38;;;;;;;;;4.00;4.00;;;;;33.67;22.44;102067.56;5028208;28;64268;-82
2022/08/09 12:50:17;;;;;;;;;3.00;3.00;;;;;33.56;22.04;102072.56;5033593;28;45338;-83
2022/08/09 12:52:45;;;;;;;;;3.00;3.00;;;;;33.37;22.36;102060.31;5031758;28;45486;-82
2022/08/09 12:55:11;;;;;;;;;2.00;2.00;;;;;33.25;22.46;102057.22;5031773;28;45370;-83
2022/08/09 12:57:36;;;;;;;;;4.33;3.67;;;;;33.13;22.70;102062.41;5036837;28;45643;-82
2022/08/09 13:00:11;;;;;;;;;2.33;2.00;;;;;33.01;22.54;102050.22;5034759;28;45413;-82
2022/08/09 13:02:56;;;;;;;;;3.00;3.00;;;;;32.95;23.16;102051.81;5030305;28;45466;-81
2022/08/09 13:05:22;;;;;;;;;2.33;2.33;;;;;32.81;23.02;102045.34;5037349;28;45401;-81
2022/08/09 13:08:11;;;;;;;;;4.33;4.33;;;;;32.73;22.92;102058.38;5035494;28;45370;-82
2022/08/09 13:10:52;;;;;;;;;3.00;3.00;;;;;32.65;22.80;102048.28;5027447;28;45336;-81
2022/08/09 13:13:33;;;;;;;;;5.00;5.00;;;;;32.54;23.34;102044.16;5029916;28;45526;-81
2022/08/09 13:15:58;;;;;;;;;3.67;3.67;;;;;32.47;23.25;102044.06;5027886;28;46138;-82
2022/08/09 13:18:24;;;;;;;;;4.00;4.00;;;;;32.42;22.85;102052.03;5036923;28;45763;-81
2022/08/09 13:20:50;;;;;;;;;4.00;4.00;;;;;32.35;23.08;102044.75;5029109;28;45962;-82
2022/08/09 13:23:17;;;;;;;;;4.67;4.67;;;;;32.28;23.29;102044.66;5031314;28;45274;-81
2022/08/09 13:25:44;;;;;;;;;4.33;4.33;;;;;32.17;23.23;102041.34;5032579;28;45450;-80
2022/08/09 13:28:14;;;;;;;;;3.00;2.67;;;;;32.06;23.59;102025.28;5027290;28;45438;-82
2022/08/09 13:30:40;;;;;;;;;5.00;3.00;;;;;32.00;23.26;102024.13;5022410;28;45545;-82
2022/08/09 13:33:05;;;;;;;;;2.67;2.67;;;;;31.96;24.16;102022.81;5036714;28;46156;-82
2022/08/09 13:35:31;;;;;;;;;5.33;5.33;;;;;31.89;23.13;102024.63;5038919;28;45590;-82
2022/08/09 13:37:56;;;;;;;;;4.67;4.67;;;;;31.82;23.42;102020.94;5022285;28;45642;-83
2022/08/09 13:40:22;;;;;;;;;4.00;4.00;;;;;31.76;23.28;102017.03;5028022;28;45785;-82
2022/08/09 13:42:48;;;;;;;;;2.33;2.33;;;;;31.71;23.85;102022.25;5026322;28;45952;-82
2022/08/09 13:45:14;;;;;;;;;4.00;4.00;;;;;31.62;23.96;102017.88;5033177;28;46283;-83
2022/08/09 13:47:41;;;;;;;;;3.00;3.00;;;;;31.52;24.40;102015.34;5024843;28;45489;-82
2022/08/09 13:50:12;;;;;;;;;3.00;3.00;;;;;31.46;24.29;102008.72;5026545;28;45358;-82
2022/08/09 13:52:37;;;;;;;;;4.33;4.33;;;;;31.43;24.19;102013.72;5024399;28;46149;-82
2022/08/09 13:55:04;;;;;;;;;4.67;4.67;;;;;31.36;24.12;102018.28;5038008;28;46290;-81
2022/08/09 13:57:32;;;;;;;;;2.67;2.67;;;;;31.31;23.14;102005.09;5029950;28;45342;-81
2022/08/09 13:59:57;;;;;;;;;4.00;4.00;;;;;31.29;23.73;102009.91;5022565;28;45315;-82
2022/08/09 14:02:22;;;;;;;;;2.67;2.67;;;;;31.23;23.86;102003.25;5019670;28;64430;-82
2022/08/09 14:04:48;;;;;;;;;5.00;3.67;;;;;31.18;24.38;102005.72;5032807;28;74653;-82
2022/08/09 14:07:13;;;;;;;;;4.67;4.00;;;;;31.15;24.16;101995.94;5024590;28;69777;-82
2022/08/09 14:09:38;;;;;;;;;3.67;3.67;;;;;31.15;23.65;102000.59;5033586;28;45283;-82
2022/08/09 14:12:04;;;;;;;;;2.00;2.00;;;;;31.12;23.99;101995.44;5035891;28;45332;-81
2022/08/09 14:14:30;;;;;;;;;4.00;3.33;;;;;31.09;23.87;101990.34;5031217;28;46265;-82
2022/08/09 14:16:57;;;;;;;;;6.33;6.33;;;;;31.04;23.23;101984.50;5034184;28;45395;-82
2022/08/09 14:19:22;;;;;;;;;4.00;4.00;;;;;31.02;24.02;101995.69;5035452;28;45571;-81
2022/08/09 14:21:48;;;;;;;;;4.67;3.00;;;;;31.01;23.93;101999.47;5031756;28;45880;-80
2022/08/09 14:24:15;;;;;;;;;4.33;4.33;;;;;30.96;24.55;101988.19;5025486;28;47229;-81
2022/08/09 14:26:41;;;;;;;;;1.67;1.67;;;;;30.91;23.50;101985.13;5034431;28;45751;-82
2022/08/09 14:29:09;;;;;;;;;4.00;4.00;;;;;30.88;23.90;101982.75;5031914;28;45393;-82
2022/08/09 14:31:35;;;;;;;;;4.67;4.67;;;;;30.82;23.90;101979.72;5028903;28;45431;-82
2022/08/09 14:34:01;;;;;;;;;5.00;5.00;;;;;30.78;24.02;101972.00;5033741;28;46723;-81
2022/08/09 14:36:26;;;;;;;;;3.00;3.00;;;;;30.75;24.10;101981.47;5034089;28;45270;-82
2022/08/09 14:38:51;;;;;;;;;3.00;3.00;;;;;30.69;24.33;101969.31;5032827;28;57466;-81
2022/08/09 14:41:17;;;;;;;;;4.00;4.00;;;;;30.67;24.21;101959.56;5031134;28;45367;-82
2022/08/09 14:43:42;;;;;;;;;6.00;6.00;;;;;30.63;24.06;101970.06;5031347;28;46126;-82
2022/08/09 14:46:07;;;;;;;;;3.67;3.67;;;;;30.62;25.33;101957.34;5023469;28;45511;-80
2022/08/09 14:48:33;;;;;;;;;3.67;3.00;;;;;30.59;24.60;101952.25;5030721;28;45440;-82
2022/08/09 14:50:58;;;;;;;;;3.00;3.00;;;;;30.56;24.52;101949.00;5027008;28;62939;-81
2022/08/09 14:53:24;;;;;;;;;5.00;3.33;;;;;30.51;24.74;101947.66;5028830;28;74548;-81
2022/08/09 14:55:49;;;;;;;;;4.00;4.00;;;;;30.50;25.11;101951.44;5032281;28;72597;-82
2022/08/09 14:58:15;;;;;;;;;5.67;5.67;;;;;30.49;25.46;101952.50;5019638;28;64694;-80
2022/08/09 15:00:40;;;;;;;;;5.67;5.67;;;;;30.47;24.83;101943.56;5027982;28;45565;-82
2022/08/09 15:03:07;;;;;;;;;4.67;4.67;;;;;30.44;25.00;101946.66;5028359;28;45966;-80
2022/08/09 15:05:32;;;;;;;;;0.00;0.00;;;;;30.42;24.70;101943.22;5022076;28;45378;-82
2022/08/09 15:07:58;;;;;;;;;3.00;3.00;;;;;30.42;25.55;101940.50;5035006;28;45497;-82
2022/08/09 15:10:25;;;;;;;;;4.67;4.67;;;;;30.42;25.53;101953.38;5035740;28;69027;-82
2022/08/09 15:12:50;;;;;;;;;6.00;4.33;;;;;30.45;25.14;101945.59;5026424;28;46324;-80
2022/08/09 15:15:15;;;;;;;;;7.67;7.33;;;;;30.49;24.69;101943.38;5026657;28;45487;-82
2022/08/09 15:17:41;;;;;;;;;7.00;6.33;;;;;30.47;24.32;101950.97;5025990;28;59757;-81
2022/08/09 15:20:07;;;;;;;;;3.67;3.67;;;;;30.45;24.62;101959.31;5034340;28;45576;-82
2022/08/09 15:22:33;;;;;;;;;4.00;4.00;;;;;30.42;24.57;101948.72;5034261;28;47003;-81
2022/08/09 15:24:58;;;;;;;;;5.00;5.00;;;;;30.42;24.94;101948.72;5021442;28;45412;-81
2022/08/09 15:27:23;;;;;;;;;4.33;4.33;;;;;30.43;24.90;101947.69;5025925;28;45678;-81
2022/08/09 15:29:49;;;;;;;;;4.67;4.67;;;;;30.44;25.20;101946.66;5031955;28;66333;-80
2022/08/09 15:32:14;;;;;;;;;4.00;4.00;;;;;30.41;25.15;101955.25;5021024;28;46443;-81
2022/08/09 15:34:40;;;;;;;;;3.33;3.33;;;;;30.38;25.09;101954.72;5033665;28;45392;-80
2022/08/09 15:37:33;;;;;;;;;3.33;3.33;;;;;30.36;25.81;101953.06;5024960;28;58092;-79
2022/08/09 15:39:50;;;;;;;;;6.00;6.00;;;;;30.33;25.37;101956.13;5027694;28;45300;-79
2022/08/09 15:42:16;;;;;;;;;4.00;4.00;;;;;30.32;25.51;101945.34;5024001;28;70277;-79
2022/08/09 15:44:41;;;;;;;;;4.67;3.00;;;;;30.30;24.88;101934.56;5029325;28;73479;-79
2022/08/09 15:47:06;;;;;;;;;2.67;2.67;;;;;30.26;25.32;101943.31;5035230;28;45382;-81
2022/08/09 15:49:32;;;;;;;;;2.00;2.00;;;;;30.25;25.18;101917.78;5018054;28;70417;-79
2022/08/09 15:51:57;;;;;;;;;6.00;6.00;;;;;30.25;25.06;101925.19;5019550;28;68637;-80
2022/08/09 15:54:22;;;;;;;;;3.33;3.00;;;;;30.24;24.75;101923.47;5031823;28;64468;-82
2022/08/09 15:56:47;;;;;;;;;4.00;3.00;;;;;30.20;25.27;101917.47;5033012;28;59764;-79
2022/08/09 15:59:13;;;;;;;;;3.67;3.67;;;;;30.19;25.27;101924.00;5023043;28;67727;-74
2022/08/09 16:01:38;;;;;;;;;3.67;3.67;;;;;30.20;25.73;101912.81;5025277;28;73449;-79